createdAt,value
2022-11-17T00:02:13.678Z,98838.38
2022-11-17T00:04:40.381Z,98807.94
2022-11-17T00:07:06.934Z,98809.63
2022-11-17T00:09:33.636Z,98812.16
2022-11-17T00:12:22.487Z,98803.31
2022-11-17T00:14:54.144Z,98787.56
2022-11-17T00:17:22.956Z,98789.06
2022-11-17T00:20:08.110Z,98777.31
2022-11-17T00:22:34.753Z,98782.59
2022-11-17T00:25:01.279Z,98768.25
2022-11-17T00:27:27.901Z,98773.53
2022-11-17T00:29:54.488Z,98764.53
2022-11-17T00:32:39.755Z,98774.00
2022-11-17T00:35:07.076Z,98747.78
2022-11-17T00:37:37.433Z,98738.28
2022-11-17T00:40:09.484Z,98745.44
2022-11-17T00:42:36.040Z,98757.19
2022-11-17T00:45:05.544Z,98753.88
2022-11-17T00:47:36.137Z,98725.59
2022-11-17T00:50:02.692Z,98698.94
2022-11-17T00:52:31.507Z,98713.44
2022-11-17T00:54:58.200Z,98701.19
2022-11-17T00:57:25.280Z,98718.66
2022-11-17T00:59:52.108Z,98701.47
2022-11-17T01:02:18.819Z,98704.84
2022-11-17T01:04:45.372Z,98685.97
2022-11-17T01:07:11.983Z,98683.00
2022-11-17T01:09:38.698Z,98672.69
2022-11-17T01:12:05.652Z,98685.75
2022-11-17T01:14:32.743Z,98650.31
2022-11-17T01:16:59.446Z,98656.22
2022-11-17T01:19:26.040Z,98682.00
2022-11-17T01:21:52.718Z,98673.56
2022-11-17T01:24:19.295Z,98686.84
2022-11-17T01:26:46.451Z,98681.00
2022-11-17T01:29:19.285Z,98655.63
2022-11-17T01:31:50.632Z,98662.75
2022-11-17T01:34:17.602Z,98660.84
2022-11-17T01:37:03.572Z,98671.56
2022-11-17T01:39:31.312Z,98657.72
2022-11-17T01:41:58.767Z,98646.81
2022-11-17T01:44:54.247Z,98649.16
2022-11-17T01:47:25.624Z,98648.09
2022-11-17T01:50:00.691Z,98641.38
2022-11-17T01:52:29.263Z,98651.25
2022-11-17T01:54:57.036Z,98640.56
2022-11-17T01:57:33.141Z,98630.72
2022-11-17T02:00:07.964Z,98638.72
2022-11-17T02:02:37.408Z,98641.66
2022-11-17T02:05:41.930Z,98642.06
2022-11-17T02:08:10.038Z,98634.91
2022-11-17T02:10:38.310Z,98627.34
2022-11-17T02:13:05.612Z,98622.78
2022-11-17T02:15:32.214Z,98631.19
2022-11-17T02:18:00.172Z,98621.09
2022-11-17T02:20:32.907Z,98619.03
2022-11-17T02:23:05.324Z,98627.84
2022-11-17T02:25:50.622Z,98625.94
2022-11-17T02:28:48.787Z,98604.13
2022-11-17T02:31:24.447Z,98601.41
2022-11-17T02:34:12.086Z,98594.03
2022-11-17T02:36:57.042Z,98595.31
2022-11-17T02:39:55.436Z,98602.88
2022-11-17T02:42:55.605Z,98591.53
2022-11-17T02:45:28.896Z,98570.56
2022-11-17T02:48:00.565Z,98572.47
2022-11-17T02:50:28.941Z,98556.72
2022-11-17T02:52:56.539Z,98558.59
2022-11-17T02:55:23.176Z,98559.84
2022-11-17T02:57:49.854Z,98543.91
2022-11-17T03:00:20.099Z,98548.53
2022-11-17T03:03:18.787Z,98540.56
2022-11-17T03:05:48.364Z,98535.94
2022-11-17T03:08:31.597Z,98546.63
2022-11-17T03:11:04.037Z,98535.72
2022-11-17T03:13:46.543Z,98523.78
2022-11-17T03:16:30.215Z,98522.91
2022-11-17T03:19:25.564Z,98511.19
2022-11-17T03:22:10.792Z,98509.06
2022-11-17T03:24:42.242Z,98505.31
2022-11-17T03:27:16.015Z,98501.34
2022-11-17T03:29:50.219Z,98506.78
2022-11-17T03:32:18.155Z,98507.81
2022-11-17T03:34:52.147Z,98505.94
2022-11-17T03:37:23.050Z,98493.97
2022-11-17T03:39:53.282Z,98500.28
2022-11-17T03:42:26.266Z,98484.53
2022-11-17T03:45:03.158Z,98482.88
2022-11-17T03:47:32.809Z,98482.00
2022-11-17T03:49:59.266Z,98494.41
2022-11-17T03:52:29.676Z,98480.31
2022-11-17T03:54:58.927Z,98440.66
2022-11-17T03:57:32.638Z,98468.38
2022-11-17T04:00:10.584Z,98460.59
2022-11-17T04:02:41.883Z,98461.63
2022-11-17T04:05:12.308Z,98459.56
2022-11-17T04:07:43.659Z,98451.38
2022-11-17T04:10:19.344Z,98445.53
2022-11-17T04:13:06.510Z,98441.09
2022-11-17T04:15:52.050Z,98443.81
2022-11-17T04:18:19.824Z,98449.06
2022-11-17T04:20:50.636Z,98447.81
2022-11-17T04:23:17.625Z,98448.84
2022-11-17T04:26:07.795Z,98443.84
2022-11-17T04:28:36.919Z,98444.47
2022-11-17T04:31:09.381Z,98432.50
2022-11-17T04:33:37.820Z,98434.56
2022-11-17T04:36:05.850Z,98435.22
2022-11-17T04:38:32.530Z,98432.06
2022-11-17T04:41:25.059Z,98437.75
2022-11-17T04:43:51.900Z,98422.59
2022-11-17T04:46:24.952Z,98441.50
2022-11-17T04:48:54.474Z,98433.31
2022-11-17T04:51:22.243Z,98430.56
2022-11-17T04:53:49.242Z,98404.13
2022-11-17T04:56:16.275Z,98397.22
2022-11-17T04:58:43.117Z,98387.16
2022-11-17T05:01:12.612Z,98403.91
2022-11-17T05:03:43.300Z,98399.53
2022-11-17T05:06:11.909Z,98394.09
2022-11-17T05:08:39.167Z,98394.50
2022-11-17T05:11:25.603Z,98391.56
2022-11-17T05:13:52.886Z,98390.69
2022-11-17T05:16:41.620Z,98394.94
2022-11-17T05:19:16.511Z,98380.66
2022-11-17T05:21:43.159Z,98398.06
2022-11-17T05:24:10.307Z,98398.06
2022-11-17T05:26:38.369Z,98395.34
2022-11-17T05:29:11.726Z,98391.38
2022-11-17T05:31:38.905Z,98407.94
2022-11-17T05:34:07.436Z,98406.88
2022-11-17T05:36:34.476Z,98441.50
2022-11-17T05:39:01.131Z,98428.06
2022-11-17T05:41:30.425Z,98418.00
2022-11-17T05:43:57.363Z,98430.16
2022-11-17T05:46:24.950Z,98432.28
2022-11-17T05:48:52.558Z,98431.00
2022-11-17T05:51:21.509Z,98418.88
2022-11-17T05:53:48.692Z,98427.44
2022-11-17T05:56:33.769Z,98439.19
2022-11-17T05:59:13.581Z,98437.09
2022-11-17T06:01:49.411Z,98439.00
2022-11-17T06:04:19.574Z,98444.03
2022-11-17T06:06:47.661Z,98438.16
2022-11-17T06:09:14.482Z,98426.84
2022-11-17T06:11:41.262Z,98435.63
2022-11-17T06:14:07.945Z,98444.84
2022-11-17T06:16:38.250Z,98449.06
2022-11-17T06:19:11.977Z,98440.47
2022-11-17T06:22:09.786Z,98451.56
2022-11-17T06:24:25.451Z,98458.06
2022-11-17T06:26:52.550Z,98455.75
2022-11-17T06:29:21.875Z,98448.22
2022-11-17T06:31:48.779Z,98455.97
2022-11-17T06:34:15.687Z,98465.63
2022-11-17T06:36:42.242Z,98466.88
2022-11-17T06:39:08.842Z,98467.31
2022-11-17T06:41:36.919Z,98470.06
2022-11-17T06:44:03.498Z,98467.97
2022-11-17T06:46:38.002Z,98478.22
2022-11-17T06:49:08.258Z,98485.78
2022-11-17T06:51:43.775Z,98485.56
2022-11-17T06:54:12.446Z,98498.38
2022-11-17T06:56:39.059Z,98491.69
2022-11-17T06:59:05.835Z,98499.00
2022-11-17T07:01:32.498Z,98493.13
2022-11-17T07:03:59.105Z,98500.06
2022-11-17T07:06:25.710Z,98499.63
2022-11-17T07:08:52.312Z,98498.81
2022-11-17T07:11:19.279Z,98508.03
2022-11-17T07:13:46.050Z,98506.56
2022-11-17T07:16:21.723Z,98506.56
2022-11-17T07:18:50.668Z,98495.00
2022-11-17T07:21:18.097Z,98503.66
2022-11-17T07:24:35.481Z,98516.88
2022-11-17T07:27:02.203Z,98507.41
2022-11-17T07:29:30.558Z,98509.94
2022-11-17T07:31:57.426Z,98518.31
2022-11-17T07:34:26.371Z,98522.94
2022-11-17T07:36:52.966Z,98523.78
2022-11-17T07:39:22.178Z,98528.19
2022-11-17T07:41:49.048Z,98536.59
2022-11-17T07:44:15.643Z,98533.22
2022-11-17T07:46:44.709Z,98546.66
2022-11-17T07:49:11.339Z,98525.69
2022-11-17T07:51:40.297Z,98535.94
2022-11-17T07:54:07.062Z,98540.56
2022-11-17T07:56:34.471Z,98549.16
2022-11-17T07:59:01.300Z,98548.13
2022-11-17T08:01:28.010Z,98553.78
2022-11-17T08:03:54.653Z,98558.41
2022-11-17T08:06:22.747Z,98557.56
2022-11-17T08:08:49.900Z,98556.31
2022-11-17T08:11:16.838Z,98554.63
2022-11-17T08:13:43.756Z,98569.13
2022-11-17T08:16:14.438Z,98562.59
2022-11-17T08:18:41.291Z,98572.47
2022-11-17T08:21:10.132Z,98573.50
2022-11-17T08:23:37.968Z,98580.88
2022-11-17T08:26:09.537Z,98579.63
2022-11-17T08:28:39.703Z,98578.13
2022-11-17T08:31:16.512Z,98586.53
2022-11-17T08:33:50.155Z,98583.19
2022-11-17T08:36:17.590Z,98583.38
2022-11-17T08:38:44.167Z,98599.75
2022-11-17T08:41:10.787Z,98598.94
2022-11-17T08:43:39.702Z,98593.06
2022-11-17T08:46:10.531Z,98592.41
2022-11-17T08:48:37.424Z,98603.97
2022-11-17T08:51:06.190Z,98589.25
2022-11-17T08:53:32.896Z,98612.38
2022-11-17T08:55:59.842Z,98598.72
2022-11-17T08:58:26.763Z,98611.50
2022-11-17T09:00:53.440Z,98610.03
2022-11-17T09:03:20.145Z,98607.94
2022-11-17T09:05:50.028Z,98606.25
2022-11-17T09:08:43.792Z,98615.28
2022-11-17T09:11:07.822Z,98623.69
2022-11-17T09:13:37.220Z,98614.00
2022-11-17T09:16:05.908Z,98622.00
2022-11-17T09:18:33.291Z,98631.88
2022-11-17T09:21:07.784Z,98625.75
2022-11-17T09:23:34.856Z,98635.44
2022-11-17T09:26:12.921Z,98638.38
2022-11-17T09:28:44.167Z,98637.53
2022-11-17T09:31:15.364Z,98640.06
2022-11-17T09:33:42.891Z,98648.44
2022-11-17T09:36:11.044Z,98649.28
2022-11-17T09:38:38.971Z,98651.38
2022-11-17T09:41:27.771Z,98648.88
2022-11-17T09:44:02.663Z,98651.19
2022-11-17T09:46:35.347Z,98660.63
2022-11-17T09:49:12.081Z,98664.63
2022-11-17T09:51:42.488Z,98669.69
2022-11-17T09:54:30.398Z,98664.03
2022-11-17T09:56:59.336Z,98683.75
2022-11-17T09:59:29.119Z,98681.25
2022-11-17T10:01:58.502Z,98668.00
2022-11-17T10:04:31.860Z,98687.56
2022-11-17T10:06:58.758Z,98683.78
2022-11-17T10:09:36.756Z,98681.69
2022-11-17T10:12:26.851Z,98685.47
2022-11-17T10:14:55.210Z,98679.19
2022-11-17T10:17:26.270Z,98677.47
2022-11-17T10:19:52.955Z,98695.34
2022-11-17T10:22:33.325Z,98688.81
2022-11-17T10:24:59.995Z,98693.44
2022-11-17T10:27:32.574Z,98692.41
2022-11-17T10:30:20.904Z,98703.97
2022-11-17T10:32:54.837Z,98709.00
2022-11-17T10:35:23.156Z,98708.59
2022-11-17T10:38:12.914Z,98710.28
2022-11-17T10:40:39.470Z,98714.47
2022-11-17T10:43:18.556Z,98721.41
2022-11-17T10:45:46.753Z,98724.97
2022-11-17T10:48:30.341Z,98719.94
2022-11-17T10:51:04.210Z,98726.84
2022-11-17T10:53:44.956Z,98737.56
2022-11-17T10:56:19.980Z,98729.16
2022-11-17T10:59:01.340Z,98735.47
2022-11-17T11:01:34.071Z,98740.94
2022-11-17T11:04:04.397Z,98736.75
2022-11-17T11:06:34.064Z,98735.91
2022-11-17T11:09:10.569Z,98738.03
2022-11-17T11:11:41.143Z,98732.56
2022-11-17T11:14:38.553Z,98739.91
2022-11-17T11:17:15.789Z,98741.16
2022-11-17T11:19:46.147Z,98743.91
2022-11-17T11:22:51.847Z,98747.03
2022-11-17T11:25:38.062Z,98744.97
2022-11-17T11:28:32.734Z,98752.31
2022-11-17T11:31:07.618Z,98755.66
2022-11-17T11:33:43.156Z,98761.13
2022-11-17T11:36:33.311Z,98759.66
2022-11-17T11:39:13.217Z,98752.31
2022-11-17T11:41:46.073Z,98766.59
2022-11-17T11:44:43.695Z,98766.78
2022-11-17T11:47:25.563Z,98765.13
2022-11-17T11:50:04.554Z,98770.78
2022-11-17T11:52:35.858Z,98760.47
2022-11-17T11:55:02.608Z,98777.72
2022-11-17T11:57:39.068Z,98786.97
2022-11-17T12:00:15.063Z,98787.38
2022-11-17T12:02:43.657Z,98773.06
2022-11-17T12:05:19.594Z,98781.50
2022-11-17T12:08:10.203Z,98789.69
2022-11-17T12:11:28.111Z,98798.94
2022-11-17T12:13:57.162Z,98805.63
2022-11-17T12:16:37.174Z,98807.13
2022-11-17T12:19:42.466Z,98798.09
2022-11-17T12:22:09.760Z,98791.97
2022-11-17T12:24:42.144Z,98810.06
2022-11-17T12:27:32.273Z,98807.13
2022-11-17T12:29:58.939Z,98799.75
2022-11-17T12:32:44.010Z,98807.34
2022-11-17T12:35:27.821Z,98811.97
2022-11-17T12:38:22.200Z,98816.13
2022-11-17T12:40:52.235Z,98805.00
2022-11-17T12:43:24.013Z,98804.38
2022-11-17T12:45:53.555Z,98821.59
2022-11-17T12:48:36.285Z,98810.47
2022-11-17T12:51:37.294Z,98822.22
2022-11-17T12:54:22.227Z,98829.78
2022-11-17T12:57:00.996Z,98827.69
2022-11-17T12:59:51.943Z,98827.69
2022-11-17T13:02:41.880Z,98827.69
2022-11-17T13:05:16.040Z,98833.16
2022-11-17T13:07:42.722Z,98835.88
2022-11-17T13:10:31.401Z,98829.38
2022-11-17T13:13:23.960Z,98832.75
2022-11-17T13:15:53.481Z,98823.28
2022-11-17T13:18:22.802Z,98838.00
2022-11-17T13:20:49.634Z,98830.88
2022-11-17T13:23:25.867Z,98840.13
2022-11-17T13:26:30.309Z,98839.72
2022-11-17T13:29:19.325Z,98843.06
2022-11-17T13:31:46.814Z,98857.81
2022-11-17T13:34:21.197Z,98858.22
2022-11-17T13:36:59.122Z,98859.06
2022-11-17T13:39:29.133Z,98859.47
2022-11-17T13:41:58.031Z,98869.56
2022-11-17T13:44:27.565Z,98872.97
2022-11-17T13:46:54.392Z,98864.97
2022-11-17T13:49:34.564Z,98863.06
2022-11-17T13:52:02.782Z,98866.47
2022-11-17T13:54:29.921Z,98870.06
2022-11-17T13:57:03.557Z,98868.78
2022-11-17T13:59:38.726Z,98872.16
2022-11-17T14:02:22.844Z,98874.88
2022-11-17T14:05:19.347Z,98871.09
2022-11-17T14:07:47.118Z,98885.41
2022-11-17T14:10:20.590Z,98870.06
2022-11-17T14:12:51.250Z,98883.53
2022-11-17T14:15:25.724Z,98886.47
2022-11-17T14:17:55.451Z,98894.66
2022-11-17T14:20:31.863Z,98898.03
2022-11-17T14:23:11.759Z,98900.75
2022-11-17T14:25:41.542Z,98900.75
2022-11-17T14:28:16.616Z,98895.50
2022-11-17T14:30:43.551Z,98899.06
2022-11-17T14:33:13.627Z,98902.00
2022-11-17T14:35:40.868Z,98898.59
2022-11-17T14:38:10.636Z,98897.75
2022-11-17T14:40:37.353Z,98913.78
2022-11-17T14:43:03.855Z,98908.44
2022-11-17T14:45:34.162Z,98914.56
2022-11-17T14:48:30.553Z,98927.34
2022-11-17T14:51:06.032Z,98929.66
2022-11-17T14:53:36.763Z,98932.59
2022-11-17T14:56:16.543Z,98930.72
2022-11-17T14:58:45.295Z,98933.88
2022-11-17T15:01:17.802Z,98930.94
2022-11-17T15:03:45.662Z,98941.88
2022-11-17T15:06:19.506Z,98933.41
2022-11-17T15:08:46.710Z,98944.97
2022-11-17T15:11:17.954Z,98943.47
2022-11-17T15:13:44.855Z,98948.28
2022-11-17T15:16:12.179Z,98954.19
2022-11-17T15:18:39.170Z,98957.50
2022-11-17T15:21:07.868Z,98965.06
2022-11-17T15:23:37.353Z,98961.47
2022-11-17T15:26:10.721Z,98954.75
2022-11-17T15:29:03.382Z,98962.50
2022-11-17T15:31:30.016Z,98969.19
2022-11-17T15:34:01.293Z,98978.63
2022-11-17T15:36:30.870Z,98972.53
2022-11-17T15:39:06.318Z,98977.34
2022-11-17T15:41:33.275Z,98975.66
2022-11-17T15:44:00.028Z,98976.72
2022-11-17T15:46:26.688Z,98977.13
2022-11-17T15:48:53.395Z,98990.78
2022-11-17T15:54:16.715Z,98988.63
2022-11-17T15:56:49.012Z,98988.59
2022-11-17T15:59:16.121Z,98993.38
2022-11-17T16:01:43.201Z,98992.94
2022-11-17T16:04:15.974Z,99004.50
2022-11-17T16:06:46.955Z,99004.47
2022-11-17T16:09:15.303Z,99005.75
2022-11-17T16:11:42.411Z,99010.38
2022-11-17T16:14:09.236Z,99001.72
2022-11-17T16:16:40.751Z,99004.25
2022-11-17T16:19:07.748Z,99006.53
2022-11-17T16:21:37.544Z,99016.44
2022-11-17T16:24:04.199Z,99014.94
2022-11-17T16:26:31.490Z,99030.06
2022-11-17T16:29:04.277Z,99020.16
2022-11-17T16:31:33.089Z,99035.53
2022-11-17T16:34:00.863Z,99028.81
2022-11-17T16:36:34.537Z,99038.50
2022-11-17T16:39:04.404Z,99035.16
2022-11-17T16:41:34.666Z,99042.66
2022-11-17T16:44:02.094Z,99039.09
2022-11-17T16:46:32.006Z,99042.22
2022-11-17T16:49:04.424Z,99039.69
2022-11-17T16:51:31.068Z,99042.59
2022-11-17T16:54:05.578Z,99045.09
2022-11-17T16:56:33.092Z,99045.69
2022-11-17T16:58:59.963Z,99047.97
2022-11-17T17:01:30.528Z,99058.03
2022-11-17T17:03:59.555Z,99057.56
2022-11-17T17:06:29.395Z,99060.47
2022-11-17T17:08:57.952Z,99059.19
2022-11-17T17:11:25.373Z,99065.03
2022-11-17T17:13:54.109Z,99066.47
2022-11-17T17:16:20.963Z,99064.13
2022-11-17T17:18:48.398Z,99063.03
2022-11-17T17:21:19.025Z,99063.59
2022-11-17T17:23:45.838Z,99074.06
2022-11-17T17:26:16.701Z,99075.25
2022-11-17T17:28:44.717Z,99081.13
2022-11-17T17:31:21.401Z,99055.50
2022-11-17T17:33:50.317Z,99085.66
2022-11-17T17:36:22.381Z,99096.94
2022-11-17T17:38:55.376Z,99089.50
2022-11-17T17:41:24.601Z,99104.19
2022-11-17T17:44:02.991Z,99111.88
2022-11-17T17:46:31.513Z,99109.53
2022-11-17T17:48:58.567Z,99099.78
2022-11-17T17:51:28.586Z,99119.94
2022-11-17T17:54:00.707Z,99120.13
2022-11-17T17:56:27.660Z,99113.78
2022-11-17T17:58:55.567Z,99128.03
2022-11-17T18:01:29.717Z,99128.41
2022-11-17T18:04:01.481Z,99122.50
2022-11-17T18:06:31.893Z,99129.56
2022-11-17T18:08:59.442Z,99124.69
2022-11-17T18:11:28.124Z,99133.69
2022-11-17T18:13:54.768Z,99136.97
2022-11-17T18:16:26.782Z,99139.69
2022-11-17T18:19:02.358Z,99133.97
2022-11-17T18:21:30.149Z,99128.91
2022-11-17T18:24:02.069Z,99140.84
2022-11-17T18:26:31.756Z,99146.66
2022-11-17T18:29:06.660Z,99140.06
2022-11-17T18:31:35.473Z,99152.47
2022-11-17T18:34:14.201Z,99155.38
2022-11-17T18:36:40.893Z,99154.06
2022-11-17T18:39:07.523Z,99157.69
2022-11-17T18:41:36.048Z,99161.75
2022-11-17T18:44:02.914Z,99167.56
2022-11-17T18:46:31.688Z,99179.47
2022-11-17T18:48:59.176Z,99176.09
2022-11-17T18:51:28.120Z,99175.44
2022-11-17T18:53:57.504Z,99188.03
2022-11-17T18:56:28.517Z,99183.97
2022-11-17T18:58:58.099Z,99176.00
2022-11-17T19:01:28.007Z,99181.63
2022-11-17T19:03:56.286Z,99182.66
2022-11-17T19:06:24.947Z,99183.88
2022-11-17T19:08:52.669Z,99172.50
2022-11-17T19:11:20.607Z,99191.03
2022-11-17T19:13:47.769Z,99195.78
2022-11-17T19:16:23.082Z,99201.22
2022-11-17T19:18:52.020Z,99203.28
2022-11-17T19:21:33.666Z,99208.25
2022-11-17T19:24:03.178Z,99203.00
2022-11-17T19:26:32.391Z,99211.53
2022-11-17T19:29:11.196Z,99215.44
2022-11-17T19:31:41.217Z,99216.97
2022-11-17T19:34:10.466Z,99205.78
2022-11-17T19:36:37.492Z,99219.69
2022-11-17T19:39:04.417Z,99216.13
2022-11-17T19:41:38.551Z,99225.69
2022-11-17T19:44:09.248Z,99227.38
2022-11-17T19:46:36.389Z,99230.47
2022-11-17T19:49:04.515Z,99229.13
2022-11-17T19:51:33.563Z,99242.19
2022-11-17T19:54:06.273Z,99242.38
2022-11-17T19:56:35.628Z,99246.13
2022-11-17T19:59:03.463Z,99250.72
2022-11-17T20:01:31.132Z,99262.81
2022-11-17T20:04:02.175Z,99262.31
2022-11-17T20:06:34.032Z,99267.75
2022-11-17T20:09:00.760Z,99258.94
2022-11-17T20:11:28.598Z,99275.25
2022-11-17T20:13:55.837Z,99278.16
2022-11-17T20:16:24.766Z,99283.94
2022-11-17T20:18:59.603Z,99288.56
2022-11-17T20:21:28.578Z,99288.06
2022-11-17T20:23:58.980Z,99297.91
2022-11-17T20:26:29.001Z,99298.97
2022-11-17T20:28:57.011Z,99299.31
2022-11-17T20:31:27.891Z,99303.91
2022-11-17T20:34:00.574Z,99303.22
2022-11-17T20:36:28.772Z,99307.53
2022-11-17T20:38:57.759Z,99316.50
2022-11-17T20:41:25.041Z,99315.84
2022-11-17T20:43:55.834Z,99320.63
2022-11-17T20:46:23.258Z,99326.41
2022-11-17T20:48:53.529Z,99324.56
2022-11-17T20:51:21.778Z,99331.91
2022-11-17T20:53:51.212Z,99327.81
2022-11-17T20:56:18.508Z,99343.78
2022-11-17T20:58:45.599Z,99339.19
2022-11-17T21:01:15.025Z,99349.22
2022-11-17T21:03:42.095Z,99352.97
2022-11-17T21:06:09.394Z,99346.84
2022-11-17T21:08:38.143Z,99351.47
2022-11-17T21:11:09.636Z,99348.03
2022-11-17T21:13:37.400Z,99350.44
2022-11-17T21:16:10.572Z,99350.44
2022-11-17T21:18:38.899Z,99362.84
2022-11-17T21:21:11.851Z,99363.88
2022-11-17T21:23:39.896Z,99366.09
2022-11-17T21:26:07.736Z,99381.56
2022-11-17T21:28:35.556Z,99379.34
2022-11-17T21:31:15.792Z,99365.78
2022-11-17T21:33:45.571Z,99377.81
2022-11-17T21:36:19.746Z,99371.69
2022-11-17T21:38:49.378Z,99377.31
2022-11-17T21:41:21.582Z,99375.44
2022-11-17T21:43:52.246Z,99365.28
2022-11-17T21:46:20.978Z,99376.66
2022-11-17T21:48:48.290Z,99371.06
2022-11-17T21:51:18.112Z,99385.31
2022-11-17T21:53:47.369Z,99391.94
2022-11-17T21:56:14.037Z,99394.00
2022-11-17T21:58:41.363Z,99399.09
2022-11-17T22:01:10.163Z,99395.69
2022-11-17T22:03:37.593Z,99393.50
2022-11-17T22:06:13.341Z,99406.91
2022-11-17T22:08:41.773Z,99401.81
2022-11-17T22:11:38.738Z,99400.09
2022-11-17T22:14:13.271Z,99407.59
2022-11-17T22:16:42.548Z,99413.19
2022-11-17T22:19:10.164Z,99414.03
2022-11-17T22:21:37.428Z,99413.38
2022-11-17T22:24:08.334Z,99424.41
2022-11-17T22:26:38.446Z,99418.13
2022-11-17T22:29:11.372Z,99421.03
2022-11-17T22:31:37.983Z,99418.44
2022-11-17T22:34:04.578Z,99422.88
2022-11-17T22:36:33.919Z,99428.97
2022-11-17T22:39:00.440Z,99433.03
2022-11-17T22:41:29.511Z,99436.63
2022-11-17T22:43:59.264Z,99451.91
2022-11-17T22:46:27.950Z,99441.69
2022-11-17T22:48:54.786Z,99441.38
2022-11-17T22:51:40.377Z,99448.00
2022-11-17T22:54:08.178Z,99455.13
2022-11-17T22:56:34.917Z,99453.44
2022-11-17T22:59:01.593Z,99466.31
2022-11-17T23:01:28.115Z,99471.75
2022-11-17T23:03:54.826Z,99472.13
2022-11-17T23:06:23.025Z,99466.31
2022-11-17T23:08:50.447Z,99471.75
2022-11-17T23:14:08.297Z,99475.84
2022-11-17T23:16:35.567Z,99483.81
2022-11-17T23:19:02.164Z,99480.22
2022-11-17T23:21:28.813Z,99492.31
2022-11-17T23:23:55.873Z,99478.72
2022-11-17T23:26:22.635Z,99491.78
2022-11-17T23:28:49.542Z,99497.88
2022-11-17T23:31:18.986Z,99500.59
2022-11-17T23:33:47.620Z,99501.28
2022-11-17T23:36:19.751Z,99494.81
2022-11-17T23:38:47.291Z,99500.94
2022-11-17T23:41:16.097Z,99504.66
2022-11-17T23:43:45.485Z,99507.03
2022-11-17T23:46:15.065Z,99507.38
2022-11-17T23:48:42.616Z,99516.22
2022-11-17T23:51:15.119Z,99519.28
2022-11-17T23:53:42.282Z,99511.63
2022-11-17T23:56:10.255Z,99519.28
2022-11-17T23:58:37.698Z,99510.59
